Time;durP1;ratioP1;P1;durP2;ratioP2;P2;SDS_P1;SDS_P2;PMS_P1;PMS_P2;Temp;Humidity;BMP_temperature;BMP_pressure;BME280_temperature;BME280_humidity;BME280_pressure;Samples;Min_cycle;Max_cycle;Signal;HPM_P1;HPM_P2
2023/10/29 00:00:47;;;;;;;9.02;1.02;;;;;;;11.82;100.00;99096.66;4876238;29;20490;-81
2023/10/29 00:03:12;;;;;;;2.53;1.30;;;;;;;11.84;100.00;99097.41;4868672;29;20090;-82
2023/10/29 00:05:38;;;;;;;2.15;1.33;;;;;;;11.84;100.00;99087.66;4863320;29;20037;-82
2023/10/29 00:08:04;;;;;;;6.03;1.58;;;;;;;11.88;100.00;99091.03;4891555;29;20088;-82
2023/10/29 00:10:29;;;;;;;4.80;1.10;;;;;;;11.92;100.00;99089.94;4877112;29;20133;-82
2023/10/29 00:12:54;;;;;;;3.22;1.35;;;;;;;11.93;100.00;99090.78;4879237;29;20041;-81
2023/10/29 00:15:20;;;;;;;3.38;0.93;;;;;;;11.95;100.00;99081.78;4899469;29;20653;-82
2023/10/29 00:17:46;;;;;;;4.43;1.08;;;;;;;11.98;100.00;99068.34;4892862;29;20413;-82
2023/10/29 00:20:11;;;;;;;3.08;1.35;;;;;;;12.01;100.00;99062.88;4879672;29;20508;-82
2023/10/29 00:22:37;;;;;;;2.55;1.05;;;;;;;12.05;100.00;99061.75;4893547;29;20476;-82
2023/10/29 00:25:02;;;;;;;1.90;0.98;;;;;;;12.05;100.00;99040.53;4890703;29;20066;-82
2023/10/29 00:27:28;;;;;;;3.78;1.23;;;;;;;12.03;100.00;99033.59;4867446;29;20043;-81
2023/10/29 00:29:53;;;;;;;6.63;1.35;;;;;;;12.02;100.00;99022.16;4891078;29;20497;-82
2023/10/29 00:32:19;;;;;;;3.45;1.23;;;;;;;12.04;100.00;99030.88;4894248;29;20080;-81
2023/10/29 00:34:46;;;;;;;2.33;1.20;;;;;;;12.05;100.00;99016.66;4884530;29;20501;-81
2023/10/29 00:37:12;;;;;;;2.80;1.30;;;;;;;12.05;100.00;99039.69;4892974;29;20461;-81
2023/10/29 00:39:38;;;;;;;3.42;1.15;;;;;;;12.05;100.00;99045.84;4872817;29;20476;-81
2023/10/29 00:42:03;;;;;;;3.42;1.27;;;;;;;12.02;100.00;99043.38;4882249;29;20055;-81
2023/10/29 00:44:29;;;;;;;5.63;1.23;;;;;;;12.04;100.00;99038.84;4898919;29;20068;-80
2023/10/29 00:46:55;;;;;;;4.15;1.30;;;;;;;12.07;100.00;99015.69;4885761;29;20452;-82
2023/10/29 00:49:21;;;;;;;2.00;0.95;;;;;;;12.11;100.00;99049.09;4881916;29;20048;-81
2023/10/29 00:51:46;;;;;;;5.57;1.13;;;;;;;12.10;100.00;99042.09;4892304;29;20033;-82
2023/10/29 00:54:12;;;;;;;3.55;1.08;;;;;;;12.08;100.00;99026.25;4882122;29;20103;-82
2023/10/29 00:56:39;;;;;;;4.45;1.10;;;;;;;12.11;100.00;99027.88;4868599;29;20044;-82
2023/10/29 00:59:06;;;;;;;4.05;0.98;;;;;;;12.10;100.00;99016.41;4881821;29;20438;-82
2023/10/29 01:01:32;;;;;;;4.28;1.35;;;;;;;12.13;100.00;99013.56;4898529;29;20043;-82
2023/10/29 01:03:59;;;;;;;5.38;1.30;;;;;;;12.11;100.00;99004.84;4863791;29;20044;-82
2023/10/29 01:06:26;;;;;;;2.30;1.58;;;;;;;12.13;100.00;99000.31;4890694;29;20120;-83
2023/10/29 01:08:52;;;;;;;2.72;1.20;;;;;;;12.20;100.00;99006.13;4885460;29;20040;-82
2023/10/29 01:11:17;;;;;;;4.95;1.40;;;;;;;12.24;100.00;99005.00;4872620;29;20041;-84
2023/10/29 01:13:43;;;;;;;6.13;1.55;;;;;;;12.26;100.00;98984.50;4879924;29;20538;-84
2023/10/29 01:16:08;;;;;;;6.90;1.77;;;;;;;12.28;100.00;98982.63;4879945;29;20041;-84
2023/10/29 01:18:34;;;;;;;3.35;1.02;;;;;;;12.30;100.00;98972.78;4863422;29;20044;-83
2023/10/29 01:21:00;;;;;;;2.83;0.98;;;;;;;12.33;100.00;98971.75;4847647;29;20378;-83
2023/10/29 01:23:26;;;;;;;2.40;1.20;;;;;;;12.35;100.00;98975.19;4868891;29;20072;-83
2023/10/29 01:25:53;;;;;;;2.97;1.45;;;;;;;12.38;100.00;98957.25;4877066;29;20148;-81
2023/10/29 01:28:18;;;;;;;6.78;2.80;;;;;;;12.42;100.00;98974.72;4888535;29;20096;-81
2023/10/29 01:30:44;;;;;;;3.28;1.17;;;;;;;12.47;100.00;98977.94;4896377;29;20052;-82
2023/10/29 01:33:10;;;;;;;1.88;1.15;;;;;;;12.48;100.00;98984.09;4878765;29;20068;-82
2023/10/29 01:35:35;;;;;;;4.30;1.17;;;;;;;12.48;100.00;98977.00;4882743;29;20056;-82
2023/10/29 01:38:01;;;;;;;6.70;1.48;;;;;;;12.46;100.00;98972.72;4880827;29;20084;-81
2023/10/29 01:40:27;;;;;;;3.72;1.08;;;;;;;12.45;100.00;98973.69;4854772;29;20049;-81
2023/10/29 01:42:53;;;;;;;4.60;1.08;;;;;;;12.44;100.00;98974.63;4878004;29;20127;-82
2023/10/29 01:45:19;;;;;;;2.53;1.05;;;;;;;12.44;100.00;98956.06;4875555;29;20072;-82
2023/10/29 01:47:44;;;;;;;2.45;1.17;;;;;;;12.46;100.00;98967.41;4890344;29;20044;-81
2023/10/29 01:50:10;;;;;;;2.85;0.63;;;;;;;12.45;100.00;98957.75;4884721;29;20357;-81
2023/10/29 01:52:39;;;;;;;1.58;1.00;;;;;;;12.45;100.00;98944.47;4880984;29;20044;-82
2023/10/29 01:55:08;;;;;;;3.28;1.30;;;;;;;12.47;100.00;98962.03;4869421;29;20040;-81
2023/10/29 01:57:36;;;;;;;2.72;1.00;;;;;;;12.48;100.00;98953.09;4887074;29;20040;-81
2023/10/29 02:00:06;;;;;;;4.82;1.50;;;;;;;12.51;100.00;98969.78;4848317;29;20069;-81
2023/10/29 02:02:37;;;;;;;5.05;1.05;;;;;;;12.52;100.00;98960.91;4859357;29;20056;-81
2023/10/29 02:05:06;;;;;;;3.03;1.00;;;;;;;12.51;100.00;98953.88;4880613;29;20400;-81
2023/10/29 02:07:31;;;;;;;6.65;1.20;;;;;;;12.52;100.00;98948.47;4884907;29;20052;-81
2023/10/29 02:09:57;;;;;;;2.80;1.05;;;;;;;12.52;100.00;98960.91;4868854;29;20036;-80
2023/10/29 02:12:22;;;;;;;2.85;1.30;;;;;;;12.52;100.00;98955.59;4896168;29;20476;-81
2023/10/29 02:14:52;;;;;;;2.58;1.42;;;;;;;12.51;100.00;98964.50;4880553;29;20037;-81
2023/10/29 02:17:17;;;;;;;3.97;1.00;;;;;;;12.51;100.00;98960.03;4897291;29;20041;-81
2023/10/29 02:19:43;;;;;;;1.83;0.90;;;;;;;12.47;100.00;98964.69;4897316;29;20044;-80
2023/10/29 02:22:08;;;;;;;2.42;0.90;;;;;;;12.49;100.00;98967.25;4880406;29;20067;-81
2023/10/29 02:24:34;;;;;;;2.33;1.15;;;;;;;12.47;100.00;98946.09;4880538;29;20511;-80
2023/10/29 02:26:59;;;;;;;2.03;0.93;;;;;;;12.46;100.00;98959.44;4879153;29;20033;-80
2023/10/29 02:29:25;;;;;;;2.88;1.30;;;;;;;12.45;100.00;98950.63;4896227;29;20147;-80
2023/10/29 02:31:50;;;;;;;1.27;0.85;;;;;;;12.46;100.00;98962.09;4865024;29;20654;-81
2023/10/29 02:34:16;;;;;;;4.30;1.02;;;;;;;12.43;100.00;98962.28;4867545;29;20059;-81
2023/10/29 02:36:41;;;;;;;3.75;0.90;;;;;;;12.44;100.00;98956.91;4872337;29;20041;-81
2023/10/29 02:39:07;;;;;;;2.25;1.13;;;;;;;12.41;100.00;98959.75;4862475;29;20093;-81
2023/10/29 02:41:33;;;;;;;3.88;1.13;;;;;;;12.41;100.00;98962.41;4873907;29;20385;-80
2023/10/29 02:43:58;;;;;;;5.13;1.40;;;;;;;12.43;100.00;98954.31;4882077;29;20105;-80
2023/10/29 02:46:25;;;;;;;3.47;1.27;;;;;;;12.34;100.00;98942.47;4878927;29;20045;-81
2023/10/29 02:48:51;;;;;;;3.42;1.13;;;;;;;12.40;100.00;98952.72;4896960;29;20089;-80
2023/10/29 02:51:16;;;;;;;4.00;1.00;;;;;;;12.39;100.00;98940.41;4864756;29;20393;-80
2023/10/29 02:53:42;;;;;;;1.65;0.90;;;;;;;12.50;100.00;98941.56;4888093;29;20032;-81
2023/10/29 02:56:08;;;;;;;2.35;0.88;;;;;;;12.51;100.00;98949.41;4896760;29;20525;-82
2023/10/29 02:58:34;;;;;;;2.08;1.08;;;;;;;12.53;100.00;98950.16;4893264;29;20096;-81
2023/10/29 03:01:07;;;;;;;3.78;1.40;;;;;;;12.57;100.00;98948.22;4879964;29;20047;-81
2023/10/29 03:03:37;;;;;;;2.22;1.10;;;;;;;12.54;100.00;98949.25;4879906;29;20072;-81
2023/10/29 03:06:04;;;;;;;3.33;1.00;;;;;;;12.62;100.00;98944.31;4879804;29;20036;-80
2023/10/29 03:08:30;;;;;;;5.53;0.90;;;;;;;12.62;100.00;98938.16;4867437;29;20054;-81
2023/10/29 03:10:56;;;;;;;3.08;1.10;;;;;;;12.61;100.00;98939.97;4873707;29;20068;-80
2023/10/29 03:13:21;;;;;;;3.60;1.15;;;;;;;12.60;100.00;98930.28;4868642;29;20112;-80
2023/10/29 03:15:47;;;;;;;1.92;1.08;;;;;;;12.60;100.00;98929.44;4899515;29;20043;-80
2023/10/29 03:18:13;;;;;;;1.88;1.08;;;;;;;12.70;100.00;98935.88;4900463;29;20144;-80
2023/10/29 03:20:39;;;;;;;1.73;1.23;;;;;;;12.66;100.00;98942.31;4883300;29;20538;-81
2023/10/29 03:23:05;;;;;;;2.05;1.10;;;;;;;12.65;100.00;98948.59;4900249;29;20617;-80
2023/10/29 03:25:30;;;;;;;3.55;0.90;;;;;;;12.69;100.00;98947.47;4899939;29;20092;-80
2023/10/29 03:27:56;;;;;;;4.07;0.80;;;;;;;12.75;100.00;98959.50;4875466;29;20033;-80
2023/10/29 03:30:22;;;;;;;4.13;1.10;;;;;;;12.74;100.00;98963.13;4893235;29;20491;-81
2023/10/29 03:32:47;;;;;;;2.25;1.00;;;;;;;12.72;100.00;98957.91;4895146;29;20055;-80
2023/10/29 03:35:12;;;;;;;4.90;1.30;;;;;;;12.72;100.00;98959.69;4851904;29;20492;-81
2023/10/29 03:37:39;;;;;;;5.40;0.88;;;;;;;12.70;100.00;98943.84;4896941;29;20044;-80
2023/10/29 03:40:06;;;;;;;2.45;0.95;;;;;;;12.72;100.00;98954.38;4878007;29;20048;-80
2023/10/29 03:42:32;;;;;;;5.88;1.17;;;;;;;12.71;100.00;98961.50;4882817;29;20068;-81
2023/10/29 03:44:58;;;;;;;2.63;0.82;;;;;;;12.70;100.00;98959.78;4899937;29;20043;-81
2023/10/29 03:47:24;;;;;;;1.73;0.98;;;;;;;12.73;100.00;98948.13;4899817;29;20123;-80
2023/10/29 03:49:49;;;;;;;5.88;0.95;;;;;;;12.73;100.00;98953.44;4863209;29;20434;-81
2023/10/29 03:52:15;;;;;;;2.25;0.90;;;;;;;12.68;100.00;98940.44;4891740;29;20108;-80
2023/10/29 03:54:41;;;;;;;5.47;0.82;;;;;;;12.68;100.00;98932.47;4900244;29;20056;-81
2023/10/29 03:57:07;;;;;;;2.50;1.00;;;;;;;12.67;100.00;98944.88;4874601;29;20075;-81
2023/10/29 03:59:34;;;;;;;1.85;0.80;;;;;;;12.65;100.00;98952.09;4877679;29;20058;-81
2023/10/29 04:01:59;;;;;;;2.92;0.90;;;;;;;12.65;100.00;98946.78;4870013;29;20040;-81
2023/10/29 04:04:25;;;;;;;3.15;1.13;;;;;;;12.66;100.00;98942.31;4871778;29;20140;-81
2023/10/29 04:06:51;;;;;;;2.17;0.80;;;;;;;12.61;100.00;98947.06;4871467;29;20544;-81
2023/10/29 04:09:16;;;;;;;4.20;1.08;;;;;;;12.59;100.00;98949.81;4899483;29;20036;-81
2023/10/29 04:11:43;;;;;;;2.45;0.95;;;;;;;12.52;100.00;98951.13;4867295;29;20077;-81
2023/10/29 04:14:09;;;;;;;1.60;0.82;;;;;;;12.53;100.00;98955.47;4888597;29;20025;-83
2023/10/29 04:16:34;;;;;;;2.30;1.00;;;;;;;12.56;100.00;98960.63;4882124;29;20068;-82
2023/10/29 04:19:00;;;;;;;2.20;0.85;;;;;;;12.57;100.00;98980.91;4886499;29;20033;-81
2023/10/29 04:21:26;;;;;;;2.63;0.80;;;;;;;12.62;100.00;98960.25;4899408;29;20506;-83
2023/10/29 04:23:52;;;;;;;2.92;1.05;;;;;;;12.66;100.00;98972.41;4872936;29;20032;-82
2023/10/29 04:26:17;;;;;;;2.10;0.90;;;;;;;12.70;100.00;98978.38;4890110;29;20381;-85
2023/10/29 04:28:43;;;;;;;2.67;1.27;;;;;;;12.76;100.00;98979.78;4867008;29;20144;-83
2023/10/29 04:31:08;;;;;;;3.40;1.00;;;;;;;12.68;100.00;98972.28;4899271;29;20461;-83
2023/10/29 04:33:34;;;;;;;2.50;0.88;;;;;;;12.64;100.00;98973.44;4885203;29;20084;-82
2023/10/29 04:35:59;;;;;;;2.53;1.05;;;;;;;12.64;100.00;98973.44;4863945;29;20048;-82
2023/10/29 04:38:25;;;;;;;3.53;1.00;;;;;;;12.64;100.00;98982.25;4874754;29;20123;-81
2023/10/29 04:40:51;;;;;;;4.53;1.15;;;;;;;12.72;100.00;98986.25;4898873;29;20412;-83
2023/10/29 04:43:17;;;;;;;6.07;1.40;;;;;;;12.83;100.00;98992.63;4873450;29;20041;-86
2023/10/29 04:45:43;;;;;;;4.35;1.30;;;;;;;12.79;100.00;98980.47;4863488;29;20560;-85
2023/10/29 04:48:08;;;;;;;2.03;1.00;;;;;;;12.67;100.00;98983.88;4863897;29;20503;-85
2023/10/29 04:50:34;;;;;;;3.70;1.10;;;;;;;12.59;100.00;98987.00;4880349;29;20045;-83
2023/10/29 04:53:02;;;;;;;5.50;1.00;;;;;;;12.60;100.00;98979.88;4872819;29;20060;-83
2023/10/29 04:55:28;;;;;;;8.45;1.20;;;;;;;12.52;100.00;98980.34;4898547;29;20057;-83
2023/10/29 04:57:53;;;;;;;4.78;1.20;;;;;;;12.45;100.00;98994.91;4898624;29;20115;-84
2023/10/29 05:00:19;;;;;;;3.65;1.10;;;;;;;12.43;100.00;98989.69;4889270;29;20128;-83
2023/10/29 05:02:44;;;;;;;6.85;1.08;;;;;;;12.39;100.00;99009.41;4875864;29;20056;-84
2023/10/29 05:05:11;;;;;;;6.15;1.60;;;;;;;12.35;100.00;99010.53;4879016;29;20068;-85
2023/10/29 05:07:36;;;;;;;6.03;1.50;;;;;;;12.33;100.00;99004.44;4873028;29;20068;-86
2023/10/29 05:10:03;;;;;;;7.60;1.30;;;;;;;12.34;100.00;99032.72;4883673;29;20511;-87
2023/10/29 05:12:29;;;;;;;6.30;1.33;;;;;;;12.35;100.00;98994.59;4887512;29;20119;-80
2023/10/29 05:14:55;;;;;;;5.35;1.13;;;;;;;12.24;100.00;98997.03;4898044;29;20132;-83
2023/10/29 05:17:20;;;;;;;3.63;0.90;;;;;;;12.27;100.00;98997.72;4898331;29;20079;-82
2023/10/29 05:19:45;;;;;;;5.78;0.60;;;;;;;12.17;100.00;99017.75;4881255;29;20075;-81
2023/10/29 05:22:11;;;;;;;3.25;0.82;;;;;;;12.06;100.00;99017.50;4881162;29;20166;-82
2023/10/29 05:24:36;;;;;;;3.25;1.02;;;;;;;12.08;100.00;99001.50;4898032;29;20042;-82
2023/10/29 05:27:03;;;;;;;3.10;0.77;;;;;;;12.04;100.00;99022.94;4895732;29;20184;-82
2023/10/29 05:29:29;;;;;;;4.72;0.90;;;;;;;11.96;100.00;99024.28;4876334;29;20044;-82
2023/10/29 05:31:54;;;;;;;4.97;1.27;;;;;;;11.93;100.00;99024.47;4897594;29;20404;-82
2023/10/29 05:34:20;;;;;;;4.82;1.55;;;;;;;11.84;100.00;99028.44;4885514;29;20052;-81
2023/10/29 05:36:47;;;;;;;5.47;1.55;;;;;;;11.84;100.00;99017.84;4890035;29;20045;-81
2023/10/29 05:39:14;;;;;;;3.40;1.13;;;;;;;11.75;100.00;99005.13;4894705;29;20044;-81
2023/10/29 05:41:40;;;;;;;6.07;1.10;;;;;;;11.73;100.00;99025.56;4897604;29;20176;-81
2023/10/29 05:44:05;;;;;;;3.67;1.15;;;;;;;11.79;100.00;99036.69;4897652;29;20120;-81
2023/10/29 05:46:31;;;;;;;5.03;1.27;;;;;;;11.69;100.00;99058.47;4897450;29;20079;-80
2023/10/29 05:48:56;;;;;;;2.38;0.80;;;;;;;11.70;100.00;99047.78;4870946;29;20046;-82
2023/10/29 05:51:22;;;;;;;3.25;1.02;;;;;;;11.73;100.00;99060.03;4868318;29;20480;-82
2023/10/29 05:53:47;;;;;;;6.72;1.05;;;;;;;11.63;100.00;99063.16;4885765;29;20081;-82
2023/10/29 05:56:13;;;;;;;7.15;1.40;;;;;;;11.62;100.00;99060.59;4846600;29;20052;-82
2023/10/29 05:58:38;;;;;;;4.00;1.02;;;;;;;11.58;100.00;99069.66;4888956;29;20067;-81
2023/10/29 06:01:04;;;;;;;3.35;0.93;;;;;;;11.62;100.00;99080.03;4897493;29;20077;-80
2023/10/29 06:03:30;;;;;;;3.30;1.20;;;;;;;11.52;100.00;99089.41;4897436;29;20036;-81
2023/10/29 06:05:56;;;;;;;4.18;1.25;;;;;;;11.49;100.00;99092.22;4897277;29;20051;-81
2023/10/29 06:08:22;;;;;;;3.75;1.15;;;;;;;11.46;100.00;99100.34;4884077;29;20144;-81
2023/10/29 06:10:48;;;;;;;5.10;0.93;;;;;;;11.45;100.00;99108.34;4897326;29;20036;-81
2023/10/29 06:13:14;;;;;;;3.55;0.98;;;;;;;11.41;100.00;99105.88;4880448;29;20433;-80
2023/10/29 06:15:39;;;;;;;3.13;1.10;;;;;;;11.44;100.00;99111.97;4897229;29;20071;-82
2023/10/29 06:18:06;;;;;;;6.03;1.30;;;;;;;11.36;100.00;99107.91;4880452;29;20036;-80
2023/10/29 06:20:32;;;;;;;5.25;1.33;;;;;;;11.36;100.00;99130.91;4897021;29;20230;-79
2023/10/29 06:22:58;;;;;;;3.05;1.08;;;;;;;11.36;100.00;99126.47;4897156;29;20055;-81
2023/10/29 06:25:24;;;;;;;4.15;1.35;;;;;;;11.35;100.00;99131.84;4897179;29;20441;-81
2023/10/29 06:27:49;;;;;;;8.85;1.45;;;;;;;11.32;100.00;99130.19;4889664;29;20033;-80
2023/10/29 06:30:16;;;;;;;8.23;1.65;;;;;;;11.30;100.00;99140.06;4892268;29;20428;-81
2023/10/29 06:32:42;;;;;;;6.15;1.27;;;;;;;11.30;100.00;99148.00;4892394;29;20044;-81
2023/10/29 06:35:08;;;;;;;7.80;1.40;;;;;;;11.28;100.00;99131.31;4890366;29;20044;-80
2023/10/29 06:37:34;;;;;;;11.05;2.30;;;;;;;11.30;100.00;99141.81;4896828;29;20120;-80
2023/10/29 06:40:01;;;;;;;9.13;2.03;;;;;;;11.24;100.00;99140.34;4893981;29;20512;-80
2023/10/29 06:42:26;;;;;;;11.18;1.88;;;;;;;11.21;100.00;99143.16;4896659;29;20100;-80
2023/10/29 06:44:52;;;;;;;6.65;1.35;;;;;;;11.25;100.00;99150.03;4896985;29;20481;-81
2023/10/29 06:47:17;;;;;;;6.47;1.35;;;;;;;11.26;100.00;99159.69;4896797;29;20076;-81
2023/10/29 06:49:43;;;;;;;6.10;1.85;;;;;;;11.26;100.00;99156.19;4900007;29;20047;-81
2023/10/29 06:52:09;;;;;;;5.78;1.15;;;;;;;11.28;100.00;99155.16;4882583;29;20096;-81
2023/10/29 06:54:35;;;;;;;7.95;1.90;;;;;;;11.27;100.00;99160.53;4892178;29;20100;-80
2023/10/29 06:57:01;;;;;;;10.82;2.08;;;;;;;11.40;100.00;99182.84;4900482;29;20461;-81
2023/10/29 06:59:28;;;;;;;10.05;1.83;;;;;;;11.32;100.00;99175.25;4900415;29;20041;-80
2023/10/29 07:01:56;;;;;;;6.07;1.50;;;;;;;11.36;100.00;99190.06;4883530;29;20037;-80
2023/10/29 07:04:22;;;;;;;7.50;1.80;;;;;;;11.35;100.00;99188.38;4900380;29;20033;-80
2023/10/29 07:06:49;;;;;;;10.48;1.77;;;;;;;11.38;100.00;99190.00;4900172;29;20374;-80
2023/10/29 07:09:15;;;;;;;14.02;2.10;;;;;;;11.37;100.00;99188.28;4900279;29;20396;-80
2023/10/29 07:11:45;;;;;;;13.45;1.92;;;;;;;11.40;100.00;99212.00;4900031;29;20040;-80
2023/10/29 07:14:14;;;;;;;7.07;1.70;;;;;;;11.37;100.00;99210.34;4900243;29;20099;-80
2023/10/29 07:16:43;;;;;;;10.63;1.95;;;;;;;11.35;100.00;99217.53;4900196;29;20041;-80
2023/10/29 07:19:10;;;;;;;8.63;2.03;;;;;;;11.34;100.00;99225.53;4900290;29;20092;-79
2023/10/29 07:21:36;;;;;;;7.07;1.60;;;;;;;11.32;100.00;99230.06;4900056;29;20131;-80
2023/10/29 07:24:04;;;;;;;8.43;1.90;;;;;;;11.32;100.00;99230.91;4870217;29;20437;-80
2023/10/29 07:26:29;;;;;;;11.25;1.83;;;;;;;11.32;100.00;99228.25;4900209;29;20045;-80
2023/10/29 07:28:55;;;;;;;6.45;1.50;;;;;;;11.35;100.00;99225.47;4887740;29;20039;-80
2023/10/29 07:31:20;;;;;;;10.68;1.83;;;;;;;11.33;100.00;99239.75;4883013;29;20127;-79
2023/10/29 07:33:46;;;;;;;9.07;1.92;;;;;;;11.34;100.00;99236.16;4871365;29;20044;-80
2023/10/29 07:36:11;;;;;;;10.73;1.90;;;;;;;11.37;100.00;99247.47;4874548;29;20072;-80
2023/10/29 07:38:37;;;;;;;8.48;2.70;;;;;;;11.35;100.00;99259.03;4896781;29;20048;-80
2023/10/29 07:41:02;;;;;;;10.15;1.90;;;;;;;11.35;100.00;99256.41;4866776;29;20040;-79
2023/10/29 07:43:28;;;;;;;8.52;1.80;;;;;;;11.36;100.00;99244.88;4899118;29;20059;-80
2023/10/29 07:46:01;;;;;;;11.65;2.20;;;;;;;11.42;100.00;99255.16;4882961;29;20041;-80
2023/10/29 07:48:26;;;;;;;9.80;2.58;;;;;;;11.44;100.00;99260.41;4880752;29;20120;-80
2023/10/29 07:50:52;;;;;;;9.32;2.40;;;;;;;11.50;100.00;99268.91;4880652;29;20454;-80
2023/10/29 07:53:17;;;;;;;10.20;2.30;;;;;;;11.55;100.00;99261.56;4880739;29;20461;-80
2023/10/29 07:55:43;;;;;;;11.90;2.30;;;;;;;11.59;100.00;99262.25;4881636;29;20477;-81
2023/10/29 07:58:08;;;;;;;9.88;2.50;;;;;;;11.64;100.00;99254.91;4881860;29;20096;-80
2023/10/29 08:00:35;;;;;;;13.30;2.30;;;;;;;11.66;100.00;99255.69;4863372;29;20045;-80
2023/10/29 08:03:01;;;;;;;12.98;2.20;;;;;;;11.74;100.00;99258.81;4894908;29;20033;-80
2023/10/29 08:05:26;;;;;;;8.45;1.98;;;;;;;11.78;100.00;99249.75;4893500;29;20093;-81
2023/10/29 08:07:52;;;;;;;10.95;2.28;;;;;;;11.88;100.00;99247.53;4893976;29;20397;-81
2023/10/29 08:10:17;;;;;;;6.63;1.55;;;;;;;11.98;100.00;99274.44;4885909;29;20040;-78
2023/10/29 08:12:43;;;;;;;12.77;2.53;;;;;;;12.07;100.00;99279.25;4899248;29;20040;-80
2023/10/29 08:15:09;;;;;;;6.45;1.70;;;;;;;12.13;100.00;99294.84;4882424;29;20036;-80
2023/10/29 08:17:34;;;;;;;8.35;1.88;;;;;;;12.21;100.00;99283.81;4898992;29;20053;-80
2023/10/29 08:19:59;;;;;;;9.02;2.45;;;;;;;12.33;100.00;99293.78;4882101;29;20382;-80
2023/10/29 08:22:26;;;;;;;12.07;2.15;;;;;;;12.38;100.00;99285.56;4893373;29;20120;-81
2023/10/29 08:24:51;;;;;;;12.55;2.28;;;;;;;12.41;100.00;99298.66;4892128;29;20045;-80
2023/10/29 08:27:17;;;;;;;9.10;2.20;;;;;;;12.46;100.00;99315.19;4877924;29;20033;-82
2023/10/29 08:29:43;;;;;;;11.10;2.03;;;;;;;12.41;100.00;99310.16;4890070;29;20056;-82
2023/10/29 08:32:09;;;;;;;10.63;2.22;;;;;;;12.37;99.37;99313.91;4894332;29;20793;-82
2023/10/29 08:34:34;;;;;;;9.95;2.08;;;;;;;12.50;96.11;99308.78;4877608;29;20104;-80
2023/10/29 08:37:00;;;;;;;9.02;1.88;;;;;;;12.45;98.60;99311.69;4898815;29;20076;-82
2023/10/29 08:39:26;;;;;;;8.63;2.15;;;;;;;12.52;97.27;99306.91;4899228;29;20045;-81
2023/10/29 08:41:52;;;;;;;12.77;2.40;;;;;;;12.65;96.83;99317.72;4882025;29;20044;-82
2023/10/29 08:44:19;;;;;;;10.63;2.00;;;;;;;12.70;96.69;99299.72;4898772;29;20449;-82
2023/10/29 08:46:45;;;;;;;9.88;1.73;;;;;;;12.79;96.16;99316.97;4872436;29;20049;-83
2023/10/29 08:49:11;;;;;;;9.98;2.08;;;;;;;12.90;94.33;99302.13;4880600;29;20049;-84
2023/10/29 08:51:36;;;;;;;11.18;1.70;;;;;;;12.99;90.45;99319.38;4888512;29;20480;-81
2023/10/29 08:54:03;;;;;;;7.97;2.22;;;;;;;12.96;89.96;99335.50;4898971;29;20464;-82
2023/10/29 08:56:32;;;;;;;7.50;1.98;;;;;;;13.00;90.11;99341.47;4882103;29;20096;-83
2023/10/29 08:58:58;;;;;;;15.98;2.47;;;;;;;13.03;90.69;99347.50;4898767;29;20489;-82
2023/10/29 09:01:23;;;;;;;12.00;1.88;;;;;;;13.11;89.14;99339.09;4881708;29;20051;-82
2023/10/29 09:03:49;;;;;;;11.57;2.03;;;;;;;13.12;90.67;99346.97;4898532;29;20116;-83
2023/10/29 09:06:14;;;;;;;8.82;2.40;;;;;;;13.22;89.15;99359.75;4878707;29;20037;-82
2023/10/29 09:08:40;;;;;;;13.20;1.80;;;;;;;13.30;88.48;99368.16;4897695;29;20467;-82
2023/10/29 09:11:06;;;;;;;15.32;2.35;;;;;;;13.36;88.61;99393.56;4897705;29;20044;-82
2023/10/29 09:13:31;;;;;;;8.68;2.13;;;;;;;13.40;89.15;99389.78;4898417;29;20043;-82
2023/10/29 09:15:58;;;;;;;6.22;1.98;;;;;;;13.52;86.12;99376.63;4873286;29;20032;-83
2023/10/29 09:18:23;;;;;;;12.82;2.17;;;;;;;13.52;81.97;99383.75;4893703;29;20036;-82
2023/10/29 09:20:50;;;;;;;11.48;2.15;;;;;;;13.37;85.48;99387.28;4881418;29;20386;-83
2023/10/29 09:23:16;;;;;;;7.55;1.75;;;;;;;13.29;85.55;99396.56;4869333;29;20100;-82
2023/10/29 09:25:45;;;;;;;9.40;1.95;;;;;;;13.31;84.81;99402.66;4897722;29;20037;-84
2023/10/29 09:28:11;;;;;;;6.38;1.98;;;;;;;13.31;87.43;99392.03;4870488;29;20044;-81
2023/10/29 09:30:40;;;;;;;6.65;1.50;;;;;;;13.38;85.11;99391.66;4896096;29;20055;-81
2023/10/29 09:33:07;;;;;;;8.68;1.92;;;;;;;13.42;83.24;99395.88;4890896;29;20032;-82
2023/10/29 09:35:34;;;;;;;11.52;2.97;;;;;;;13.51;82.98;99393.53;4885956;29;20056;-84
2023/10/29 09:38:00;;;;;;;8.30;1.90;;;;;;;13.61;83.21;99401.00;4890563;29;20041;-82
2023/10/29 09:40:25;;;;;;;7.43;1.80;;;;;;;13.71;81.94;99392.41;4879663;29;20088;-82
2023/10/29 09:42:55;;;;;;;10.05;1.92;;;;;;;13.77;81.15;99393.84;4868820;29;20128;-84
2023/10/29 09:45:26;;;;;;;6.72;2.03;;;;;;;13.86;81.81;99403.09;4897928;29;20036;-83
2023/10/29 09:47:55;;;;;;;10.93;2.17;;;;;;;13.96;81.89;99404.28;4863321;29;20037;-82
2023/10/29 09:50:22;;;;;;;11.55;2.10;;;;;;;14.03;81.07;99384.34;4887664;29;20139;-86
2023/10/29 09:52:54;;;;;;;14.52;2.30;;;;;;;14.04;82.41;99372.72;4869146;29;20061;-85
2023/10/29 09:55:21;;;;;;;9.35;2.08;;;;;;;13.98;78.40;99399.72;4863142;29;20059;-85
2023/10/29 09:57:48;;;;;;;6.65;2.00;;;;;;;13.92;79.43;99405.38;4879414;29;20495;-84
2023/10/29 10:00:15;;;;;;;12.13;1.90;;;;;;;13.92;79.59;99405.38;4862850;29;20064;-83
2023/10/29 10:02:57;;;;;;;9.15;2.35;;;;;;;13.82;79.40;99404.22;4883010;29;20154;-85
2023/10/29 10:05:25;;;;;;;10.27;1.95;;;;;;;13.67;80.79;99374.03;4839618;29;20037;-83
2023/10/29 10:07:57;;;;;;;10.27;2.20;;;;;;;13.60;81.12;99351.41;4872034;29;20061;-83
2023/10/29 10:10:40;;;;;;;13.18;3.67;;;;;;;13.52;80.80;99355.34;4879053;29;20049;-84
2023/10/29 10:13:06;;;;;;;10.32;2.15;;;;;;;13.50;80.92;99369.69;4879224;29;20545;-84
2023/10/29 10:15:33;;;;;;;9.98;2.60;;;;;;;13.46;78.83;99363.69;4865950;29;20032;-84
2023/10/29 10:18:00;;;;;;;12.48;2.22;;;;;;;13.40;82.46;99379.13;4879174;29;20453;-85
2023/10/29 10:20:26;;;;;;;10.20;2.78;;;;;;;13.36;81.98;99378.47;4879181;29;20127;-85
2023/10/29 10:22:58;;;;;;;8.77;1.90;;;;;;;13.31;82.60;99361.94;4862095;29;20115;-84
2023/10/29 10:25:25;;;;;;;11.32;2.65;;;;;;;13.29;81.52;99369.97;4878336;29;20052;-86
2023/10/29 10:27:52;;;;;;;10.18;2.40;;;;;;;13.28;81.85;99368.28;4875620;29;20055;-88
2023/10/29 10:30:31;;;;;;;13.07;2.30;;;;;;;13.26;83.26;99356.84;4879947;29;20065;-87
2023/10/29 10:33:19;;;;;;;12.88;2.55;;;;;;;13.28;82.75;99370.94;4875029;29;20045;-86
2023/10/29 10:35:51;;;;;;;8.95;2.30;;;;;;;13.36;82.67;99374.97;4892971;29;20036;-86
2023/10/29 10:38:24;;;;;;;10.93;2.08;;;;;;;13.37;83.66;99376.66;4890112;29;20052;-87
2023/10/29 10:41:00;;;;;;;9.65;1.95;;;;;;;13.45;82.81;99393.91;4888945;29;20037;-87
2023/10/29 10:43:29;;;;;;;10.13;2.30;;;;;;;13.50;83.16;99386.53;4865786;29;20504;-86
2023/10/29 10:45:54;;;;;;;12.30;2.47;;;;;;;13.52;81.91;99387.28;4863151;29;20127;-85
2023/10/29 10:48:20;;;;;;;11.15;2.67;;;;;;;13.56;81.49;99398.59;4865359;29;20127;-85
2023/10/29 10:50:46;;;;;;;16.25;3.38;;;;;;;13.51;82.01;99414.81;4868189;29;20124;-86
2023/10/29 10:53:13;;;;;;;8.73;2.20;;;;;;;13.51;82.89;99420.16;4889926;29;20070;-84
2023/10/29 10:55:40;;;;;;;12.52;2.50;;;;;;;13.49;83.44;99418.50;4878649;29;20092;-84
2023/10/29 10:58:06;;;;;;;8.70;2.22;;;;;;;13.46;83.49;99411.56;4878704;29;20408;-84
2023/10/29 11:00:33;;;;;;;9.15;2.92;;;;;;;13.51;82.57;99408.66;4884565;29;20029;-84
2023/10/29 11:02:59;;;;;;;10.55;2.28;;;;;;;13.37;82.88;99401.44;4861362;29;20115;-87
2023/10/29 11:05:30;;;;;;;9.55;1.95;;;;;;;13.36;83.13;99390.91;4896705;29;20119;-89
2023/10/29 11:07:56;;;;;;;12.10;2.58;;;;;;;13.28;83.32;99381.56;4896878;29;20567;-88
2023/10/29 11:10:23;;;;;;;11.70;2.38;;;;;;;13.28;84.12;99386.03;4875694;29;20430;-86
2023/10/29 11:12:48;;;;;;;13.75;2.40;;;;;;;13.23;85.12;99377.41;4846556;29;20033;-88
2023/10/29 11:15:22;;;;;;;14.63;2.95;;;;;;;13.25;85.89;99376.41;4878781;29;20142;-89
2023/10/29 11:17:52;;;;;;;10.60;1.90;;;;;;;13.19;86.88;99368.75;4862078;29;20041;-88
2023/10/29 11:20:36;;;;;;;9.57;1.63;;;;;;;13.24;86.34;99369.34;4850855;29;20420;-86